sensor_id;sensor_type;location;lat;lon;timestamp;P1;durP1;ratioP1;P2;durP2;ratioP2
18653;SDS011;9456;47.824;16.228;2023-05-16T00:01:58;6.63;;;5.87;;
18653;SDS011;9456;47.824;16.228;2023-05-16T00:04:27;6.60;;;5.57;;
18653;SDS011;9456;47.824;16.228;2023-05-16T00:06:56;7.93;;;5.83;;
18653;SDS011;9456;47.824;16.228;2023-05-16T00:09:25;5.87;;;5.27;;
18653;SDS011;9456;47.824;16.228;2023-05-16T00:11:54;6.43;;;5.80;;
18653;SDS011;9456;47.824;16.228;2023-05-16T00:14:23;7.37;;;6.00;;
18653;SDS011;9456;47.824;16.228;2023-05-16T00:16:52;7.17;;;5.87;;
18653;SDS011;9456;47.824;16.228;2023-05-16T00:19:21;7.53;;;5.77;;
18653;SDS011;9456;47.824;16.228;2023-05-16T00:21:50;7.40;;;6.13;;
18653;SDS011;9456;47.824;16.228;2023-05-16T00:24:19;6.47;;;5.87;;
18653;SDS011;9456;47.824;16.228;2023-05-16T00:26:48;6.60;;;5.50;;
18653;SDS011;9456;47.824;16.228;2023-05-16T00:29:17;5.87;;;5.30;;
18653;SDS011;9456;47.824;16.228;2023-05-16T00:31:46;5.57;;;5.07;;
18653;SDS011;9456;47.824;16.228;2023-05-16T00:34:15;5.57;;;5.03;;
18653;SDS011;9456;47.824;16.228;2023-05-16T00:36:44;5.13;;;4.67;;
18653;SDS011;9456;47.824;16.228;2023-05-16T00:39:15;5.97;;;5.00;;
18653;SDS011;9456;47.824;16.228;2023-05-16T00:41:44;5.07;;;4.57;;
18653;SDS011;9456;47.824;16.228;2023-05-16T00:44:13;5.73;;;4.67;;
18653;SDS011;9456;47.824;16.228;2023-05-16T00:46:42;5.83;;;5.00;;
18653;SDS011;9456;47.824;16.228;2023-05-16T00:49:11;5.37;;;4.87;;
18653;SDS011;9456;47.824;16.228;2023-05-16T00:51:40;9.20;;;4.73;;
18653;SDS011;9456;47.824;16.228;2023-05-16T00:54:09;6.00;;;4.77;;
18653;SDS011;9456;47.824;16.228;2023-05-16T00:56:37;4.23;;;3.83;;
18653;SDS011;9456;47.824;16.228;2023-05-16T00:59:06;4.70;;;4.30;;
18653;SDS011;9456;47.824;16.228;2023-05-16T01:01:35;6.23;;;4.07;;
18653;SDS011;9456;47.824;16.228;2023-05-16T01:04:05;5.10;;;4.33;;
18653;SDS011;9456;47.824;16.228;2023-05-16T01:06:34;4.13;;;3.83;;
18653;SDS011;9456;47.824;16.228;2023-05-16T01:09:03;4.30;;;3.90;;
18653;SDS011;9456;47.824;16.228;2023-05-16T01:11:33;4.93;;;4.53;;
18653;SDS011;9456;47.824;16.228;2023-05-16T01:14:04;4.27;;;3.53;;
18653;SDS011;9456;47.824;16.228;2023-05-16T01:16:34;4.40;;;4.00;;
18653;SDS011;9456;47.824;16.228;2023-05-16T01:19:04;4.90;;;3.77;;
18653;SDS011;9456;47.824;16.228;2023-05-16T01:21:34;3.97;;;3.67;;
18653;SDS011;9456;47.824;16.228;2023-05-16T01:24:08;4.13;;;3.83;;
18653;SDS011;9456;47.824;16.228;2023-05-16T01:26:37;4.63;;;4.23;;
18653;SDS011;9456;47.824;16.228;2023-05-16T01:29:06;4.87;;;4.37;;
18653;SDS011;9456;47.824;16.228;2023-05-16T01:31:34;5.27;;;4.30;;
18653;SDS011;9456;47.824;16.228;2023-05-16T01:34:03;4.87;;;4.47;;
18653;SDS011;9456;47.824;16.228;2023-05-16T01:36:35;4.47;;;4.07;;
18653;SDS011;9456;47.824;16.228;2023-05-16T01:39:05;4.47;;;4.07;;
18653;SDS011;9456;47.824;16.228;2023-05-16T01:41:40;4.67;;;4.27;;
18653;SDS011;9456;47.824;16.228;2023-05-16T01:44:13;4.60;;;3.80;;
18653;SDS011;9456;47.824;16.228;2023-05-16T01:46:42;4.80;;;4.37;;
18653;SDS011;9456;47.824;16.228;2023-05-16T01:49:11;5.87;;;4.70;;
18653;SDS011;9456;47.824;16.228;2023-05-16T01:51:39;6.00;;;4.27;;
18653;SDS011;9456;47.824;16.228;2023-05-16T01:54:10;5.27;;;4.77;;
18653;SDS011;9456;47.824;16.228;2023-05-16T01:56:37;4.60;;;4.20;;
18653;SDS011;9456;47.824;16.228;2023-05-16T01:59:06;4.60;;;4.20;;
18653;SDS011;9456;47.824;16.228;2023-05-16T02:01:35;4.93;;;4.43;;
18653;SDS011;9456;47.824;16.228;2023-05-16T02:04:04;5.07;;;4.67;;
18653;SDS011;9456;47.824;16.228;2023-05-16T02:06:33;4.77;;;4.00;;
18653;SDS011;9456;47.824;16.228;2023-05-16T02:09:02;4.53;;;4.17;;
18653;SDS011;9456;47.824;16.228;2023-05-16T02:11:31;4.70;;;4.30;;
18653;SDS011;9456;47.824;16.228;2023-05-16T02:14:00;5.00;;;4.50;;
18653;SDS011;9456;47.824;16.228;2023-05-16T02:16:29;4.97;;;4.37;;
18653;SDS011;9456;47.824;16.228;2023-05-16T02:18:58;4.43;;;4.03;;
18653;SDS011;9456;47.824;16.228;2023-05-16T02:21:27;7.60;;;4.73;;
18653;SDS011;9456;47.824;16.228;2023-05-16T02:23:56;6.90;;;4.47;;
18653;SDS011;9456;47.824;16.228;2023-05-16T02:26:25;3.90;;;3.60;;
18653;SDS011;9456;47.824;16.228;2023-05-16T02:28:54;4.37;;;3.97;;
18653;SDS011;9456;47.824;16.228;2023-05-16T02:31:26;7.63;;;4.47;;
18653;SDS011;9456;47.824;16.228;2023-05-16T02:33:55;3.70;;;3.40;;
18653;SDS011;9456;47.824;16.228;2023-05-16T02:36:24;4.50;;;4.10;;
18653;SDS011;9456;47.824;16.228;2023-05-16T02:38:54;6.40;;;4.90;;
18653;SDS011;9456;47.824;16.228;2023-05-16T02:41:22;6.50;;;4.67;;
18653;SDS011;9456;47.824;16.228;2023-05-16T02:46:35;5.70;;;5.20;;
18653;SDS011;9456;47.824;16.228;2023-05-16T02:49:04;5.67;;;5.17;;
18653;SDS011;9456;47.824;16.228;2023-05-16T02:51:33;5.20;;;4.70;;
18653;SDS011;9456;47.824;16.228;2023-05-16T02:54:01;6.20;;;4.77;;
18653;SDS011;9456;47.824;16.228;2023-05-16T02:56:31;4.97;;;4.50;;
18653;SDS011;9456;47.824;16.228;2023-05-16T02:58:59;4.87;;;4.47;;
18653;SDS011;9456;47.824;16.228;2023-05-16T03:01:28;6.23;;;5.60;;
18653;SDS011;9456;47.824;16.228;2023-05-16T03:03:57;7.53;;;4.93;;
18653;SDS011;9456;47.824;16.228;2023-05-16T03:06:26;5.17;;;4.67;;
18653;SDS011;9456;47.824;16.228;2023-05-16T03:08:55;5.00;;;4.60;;
18653;SDS011;9456;47.824;16.228;2023-05-16T03:11:25;4.63;;;4.23;;
18653;SDS011;9456;47.824;16.228;2023-05-16T03:13:53;4.53;;;4.13;;
18653;SDS011;9456;47.824;16.228;2023-05-16T03:16:22;5.03;;;4.30;;
18653;SDS011;9456;47.824;16.228;2023-05-16T03:18:51;4.57;;;3.97;;
18653;SDS011;9456;47.824;16.228;2023-05-16T03:21:20;4.73;;;4.23;;
18653;SDS011;9456;47.824;16.228;2023-05-16T03:23:49;4.77;;;4.37;;
18653;SDS011;9456;47.824;16.228;2023-05-16T03:26:18;4.60;;;4.20;;
18653;SDS011;9456;47.824;16.228;2023-05-16T03:28:47;4.57;;;4.17;;
18653;SDS011;9456;47.824;16.228;2023-05-16T03:31:17;5.53;;;4.33;;
18653;SDS011;9456;47.824;16.228;2023-05-16T03:33:46;4.83;;;4.43;;
18653;SDS011;9456;47.824;16.228;2023-05-16T03:36:15;5.53;;;4.87;;
18653;SDS011;9456;47.824;16.228;2023-05-16T03:38:44;4.50;;;4.10;;
18653;SDS011;9456;47.824;16.228;2023-05-16T03:41:12;5.00;;;4.43;;
18653;SDS011;9456;47.824;16.228;2023-05-16T03:43:41;4.80;;;4.33;;
18653;SDS011;9456;47.824;16.228;2023-05-16T03:46:11;4.93;;;4.50;;
18653;SDS011;9456;47.824;16.228;2023-05-16T03:51:27;4.43;;;4.03;;
18653;SDS011;9456;47.824;16.228;2023-05-16T03:53:58;5.33;;;4.83;;
18653;SDS011;9456;47.824;16.228;2023-05-16T03:56:27;4.93;;;4.03;;
18653;SDS011;9456;47.824;16.228;2023-05-16T03:58:56;5.60;;;4.87;;
18653;SDS011;9456;47.824;16.228;2023-05-16T04:01:25;4.63;;;4.23;;
18653;SDS011;9456;47.824;16.228;2023-05-16T04:03:54;7.20;;;4.10;;
18653;SDS011;9456;47.824;16.228;2023-05-16T04:06:23;5.20;;;4.70;;
18653;SDS011;9456;47.824;16.228;2023-05-16T04:08:52;4.80;;;4.40;;
18653;SDS011;9456;47.824;16.228;2023-05-16T04:11:21;8.70;;;4.70;;
18653;SDS011;9456;47.824;16.228;2023-05-16T04:13:50;4.87;;;4.40;;
18653;SDS011;9456;47.824;16.228;2023-05-16T04:16:20;4.50;;;4.10;;
18653;SDS011;9456;47.824;16.228;2023-05-16T04:18:49;5.67;;;4.73;;
18653;SDS011;9456;47.824;16.228;2023-05-16T04:21:18;4.97;;;4.47;;
18653;SDS011;9456;47.824;16.228;2023-05-16T04:23:48;4.40;;;3.90;;
18653;SDS011;9456;47.824;16.228;2023-05-16T04:26:17;5.23;;;4.40;;
18653;SDS011;9456;47.824;16.228;2023-05-16T17:18:37;13.00;;;11.80;;
18653;SDS011;9456;47.824;16.228;2023-05-16T17:21:06;13.40;;;12.10;;
18653;SDS011;9456;47.824;16.228;2023-05-16T17:23:35;13.07;;;11.77;;
18653;SDS011;9456;47.824;16.228;2023-05-16T17:26:04;12.90;;;11.80;;
18653;SDS011;9456;47.824;16.228;2023-05-16T17:28:33;13.50;;;12.30;;
18653;SDS011;9456;47.824;16.228;2023-05-16T17:31:01;12.07;;;11.00;;
18653;SDS011;9456;47.824;16.228;2023-05-16T17:33:30;12.33;;;11.13;;
18653;SDS011;9456;47.824;16.228;2023-05-16T17:36:00;11.60;;;10.53;;
18653;SDS011;9456;47.824;16.228;2023-05-16T17:38:28;13.17;;;11.87;;
18653;SDS011;9456;47.824;16.228;2023-05-16T17:40:57;11.90;;;10.90;;
18653;SDS011;9456;47.824;16.228;2023-05-16T17:43:28;12.53;;;11.43;;
18653;SDS011;9456;47.824;16.228;2023-05-16T17:45:56;11.17;;;10.07;;
18653;SDS011;9456;47.824;16.228;2023-05-16T17:48:25;10.90;;;9.90;;
18653;SDS011;9456;47.824;16.228;2023-05-16T17:50:54;9.90;;;9.03;;
18653;SDS011;9456;47.824;16.228;2023-05-16T17:53:23;9.77;;;8.97;;
18653;SDS011;9456;47.824;16.228;2023-05-16T17:55:51;9.20;;;8.40;;
18653;SDS011;9456;47.824;16.228;2023-05-16T17:58:20;8.27;;;7.57;;
18653;SDS011;9456;47.824;16.228;2023-05-16T18:00:49;8.53;;;7.77;;
18653;SDS011;9456;47.824;16.228;2023-05-16T18:03:18;8.00;;;7.30;;
18653;SDS011;9456;47.824;16.228;2023-05-16T18:05:47;8.03;;;7.37;;
18653;SDS011;9456;47.824;16.228;2023-05-16T18:08:16;8.23;;;7.53;;
18653;SDS011;9456;47.824;16.228;2023-05-16T18:10:45;7.00;;;6.40;;
18653;SDS011;9456;47.824;16.228;2023-05-16T18:13:14;7.10;;;6.50;;
18653;SDS011;9456;47.824;16.228;2023-05-16T18:15:44;7.03;;;6.53;;
18653;SDS011;9456;47.824;16.228;2023-05-16T18:18:13;7.23;;;6.63;;
18653;SDS011;9456;47.824;16.228;2023-05-16T18:20:42;6.97;;;6.37;;
18653;SDS011;9456;47.824;16.228;2023-05-16T18:23:10;6.10;;;5.60;;
18653;SDS011;9456;47.824;16.228;2023-05-16T18:25:39;6.73;;;6.23;;
18653;SDS011;9456;47.824;16.228;2023-05-16T18:28:08;6.90;;;6.30;;
18653;SDS011;9456;47.824;16.228;2023-05-16T18:30:37;7.03;;;6.23;;
18653;SDS011;9456;47.824;16.228;2023-05-16T18:33:06;7.53;;;5.70;;
18653;SDS011;9456;47.824;16.228;2023-05-16T18:35:35;6.37;;;5.77;;
18653;SDS011;9456;47.824;16.228;2023-05-16T18:38:04;6.63;;;5.60;;
18653;SDS011;9456;47.824;16.228;2023-05-16T18:40:33;6.80;;;6.20;;
18653;SDS011;9456;47.824;16.228;2023-05-16T18:43:02;6.03;;;5.53;;
18653;SDS011;9456;47.824;16.228;2023-05-16T18:45:31;7.00;;;6.40;;
18653;SDS011;9456;47.824;16.228;2023-05-16T18:48:00;7.80;;;7.20;;
18653;SDS011;9456;47.824;16.228;2023-05-16T18:50:29;8.00;;;7.20;;
18653;SDS011;9456;47.824;16.228;2023-05-16T18:52:58;7.03;;;6.53;;
18653;SDS011;9456;47.824;16.228;2023-05-16T18:55:27;6.23;;;5.73;;
18653;SDS011;9456;47.824;16.228;2023-05-16T18:57:56;6.33;;;5.83;;
18653;SDS011;9456;47.824;16.228;2023-05-16T19:00:25;6.17;;;5.57;;
18653;SDS011;9456;47.824;16.228;2023-05-16T19:02:53;6.50;;;5.70;;
18653;SDS011;9456;47.824;16.228;2023-05-16T19:05:22;7.53;;;6.83;;
18653;SDS011;9456;47.824;16.228;2023-05-16T19:07:51;8.47;;;7.67;;
18653;SDS011;9456;47.824;16.228;2023-05-16T19:10:20;7.03;;;6.43;;
18653;SDS011;9456;47.824;16.228;2023-05-16T19:12:49;8.50;;;6.63;;
18653;SDS011;9456;47.824;16.228;2023-05-16T19:15:18;6.40;;;5.90;;
18653;SDS011;9456;47.824;16.228;2023-05-16T19:17:47;6.30;;;5.70;;
18653;SDS011;9456;47.824;16.228;2023-05-16T19:20:16;9.63;;;6.97;;
18653;SDS011;9456;47.824;16.228;2023-05-16T19:22:45;6.97;;;6.27;;
18653;SDS011;9456;47.824;16.228;2023-05-16T19:25:14;7.70;;;6.27;;
18653;SDS011;9456;47.824;16.228;2023-05-16T19:27:43;6.33;;;5.70;;
18653;SDS011;9456;47.824;16.228;2023-05-16T19:30:12;6.37;;;5.80;;
18653;SDS011;9456;47.824;16.228;2023-05-16T19:32:41;6.43;;;5.87;;
18653;SDS011;9456;47.824;16.228;2023-05-16T19:35:10;7.50;;;6.70;;
18653;SDS011;9456;47.824;16.228;2023-05-16T19:37:39;6.40;;;5.80;;
18653;SDS011;9456;47.824;16.228;2023-05-16T19:40:08;6.93;;;6.33;;
18653;SDS011;9456;47.824;16.228;2023-05-16T19:42:38;6.70;;;6.03;;
18653;SDS011;9456;47.824;16.228;2023-05-16T19:45:08;6.83;;;5.93;;
18653;SDS011;9456;47.824;16.228;2023-05-16T19:47:37;8.70;;;5.67;;
18653;SDS011;9456;47.824;16.228;2023-05-16T19:50:07;6.27;;;5.67;;
18653;SDS011;9456;47.824;16.228;2023-05-16T19:52:37;7.90;;;5.93;;
18653;SDS011;9456;47.824;16.228;2023-05-16T19:55:07;6.57;;;5.97;;
18653;SDS011;9456;47.824;16.228;2023-05-16T19:57:36;6.30;;;5.80;;
18653;SDS011;9456;47.824;16.228;2023-05-16T20:00:06;5.60;;;5.10;;
18653;SDS011;9456;47.824;16.228;2023-05-16T20:02:36;6.20;;;5.70;;
18653;SDS011;9456;47.824;16.228;2023-05-16T20:05:06;6.33;;;5.47;;
18653;SDS011;9456;47.824;16.228;2023-05-16T20:07:35;5.23;;;4.83;;
18653;SDS011;9456;47.824;16.228;2023-05-16T20:10:06;5.47;;;5.07;;
18653;SDS011;9456;47.824;16.228;2023-05-16T20:12:35;5.50;;;5.10;;
18653;SDS011;9456;47.824;16.228;2023-05-16T20:15:05;6.20;;;5.60;;
18653;SDS011;9456;47.824;16.228;2023-05-16T20:17:35;5.50;;;5.07;;
18653;SDS011;9456;47.824;16.228;2023-05-16T20:20:05;6.40;;;5.80;;
18653;SDS011;9456;47.824;16.228;2023-05-16T20:22:34;6.50;;;5.90;;
18653;SDS011;9456;47.824;16.228;2023-05-16T20:25:05;6.67;;;6.07;;
18653;SDS011;9456;47.824;16.228;2023-05-16T20:27:35;6.73;;;6.17;;
18653;SDS011;9456;47.824;16.228;2023-05-16T20:30:04;5.90;;;5.40;;
18653;SDS011;9456;47.824;16.228;2023-05-16T20:32:34;6.13;;;5.63;;
18653;SDS011;9456;47.824;16.228;2023-05-16T20:35:03;9.43;;;8.53;;
18653;SDS011;9456;47.824;16.228;2023-05-16T20:37:33;7.80;;;7.00;;
18653;SDS011;9456;47.824;16.228;2023-05-16T20:40:01;5.70;;;5.20;;
18653;SDS011;9456;47.824;16.228;2023-05-16T20:42:32;5.87;;;5.37;;
18653;SDS011;9456;47.824;16.228;2023-05-16T20:45:01;5.60;;;4.73;;
18653;SDS011;9456;47.824;16.228;2023-05-16T20:47:30;5.03;;;4.03;;
18653;SDS011;9456;47.824;16.228;2023-05-16T20:49:59;4.63;;;3.90;;
18653;SDS011;9456;47.824;16.228;2023-05-16T20:52:28;3.90;;;3.60;;
18653;SDS011;9456;47.824;16.228;2023-05-16T20:54:57;3.90;;;3.63;;
18653;SDS011;9456;47.824;16.228;2023-05-16T20:57:26;3.67;;;3.47;;
18653;SDS011;9456;47.824;16.228;2023-05-16T20:59:55;4.00;;;3.70;;
18653;SDS011;9456;47.824;16.228;2023-05-16T21:02:24;3.60;;;3.30;;
18653;SDS011;9456;47.824;16.228;2023-05-16T21:04:53;3.80;;;3.53;;
18653;SDS011;9456;47.824;16.228;2023-05-16T21:07:22;3.70;;;3.40;;
18653;SDS011;9456;47.824;16.228;2023-05-16T21:09:51;3.30;;;3.10;;
18653;SDS011;9456;47.824;16.228;2023-05-16T21:12:20;3.30;;;2.80;;
18653;SDS011;9456;47.824;16.228;2023-05-16T21:14:49;3.17;;;2.97;;
18653;SDS011;9456;47.824;16.228;2023-05-16T21:17:18;3.23;;;3.03;;
18653;SDS011;9456;47.824;16.228;2023-05-16T21:19:47;2.97;;;2.77;;
18653;SDS011;9456;47.824;16.228;2023-05-16T21:22:16;3.13;;;2.93;;
18653;SDS011;9456;47.824;16.228;2023-05-16T21:24:45;2.90;;;2.70;;
18653;SDS011;9456;47.824;16.228;2023-05-16T21:27:14;2.20;;;2.10;;
18653;SDS011;9456;47.824;16.228;2023-05-16T21:29:43;2.90;;;2.37;;
18653;SDS011;9456;47.824;16.228;2023-05-16T21:32:12;2.40;;;2.30;;
18653;SDS011;9456;47.824;16.228;2023-05-16T21:34:41;2.50;;;2.40;;
18653;SDS011;9456;47.824;16.228;2023-05-16T21:37:09;2.30;;;2.20;;
18653;SDS011;9456;47.824;16.228;2023-05-16T21:39:38;2.97;;;2.40;;
18653;SDS011;9456;47.824;16.228;2023-05-16T21:42:07;2.90;;;2.70;;
18653;SDS011;9456;47.824;16.228;2023-05-16T21:44:36;2.93;;;2.73;;
18653;SDS011;9456;47.824;16.228;2023-05-16T21:47:05;4.10;;;2.80;;
18653;SDS011;9456;47.824;16.228;2023-05-16T21:49:34;3.27;;;2.70;;
18653;SDS011;9456;47.824;16.228;2023-05-16T21:52:04;3.30;;;3.10;;
18653;SDS011;9456;47.824;16.228;2023-05-16T21:54:33;3.70;;;3.07;;
18653;SDS011;9456;47.824;16.228;2023-05-16T21:57:02;3.20;;;3.00;;
18653;SDS011;9456;47.824;16.228;2023-05-16T21:59:31;3.03;;;2.83;;
18653;SDS011;9456;47.824;16.228;2023-05-16T22:02:00;3.60;;;3.30;;
18653;SDS011;9456;47.824;16.228;2023-05-16T22:04:29;3.30;;;3.03;;
18653;SDS011;9456;47.824;16.228;2023-05-16T22:06:58;3.00;;;2.80;;
18653;SDS011;9456;47.824;16.228;2023-05-16T22:09:27;4.10;;;2.93;;
18653;SDS011;9456;47.824;16.228;2023-05-16T22:11:56;3.00;;;2.70;;
18653;SDS011;9456;47.824;16.228;2023-05-16T22:14:25;3.33;;;3.03;;
18653;SDS011;9456;47.824;16.228;2023-05-16T22:16:54;3.20;;;3.00;;
18653;SDS011;9456;47.824;16.228;2023-05-16T22:19:23;3.27;;;3.07;;
18653;SDS011;9456;47.824;16.228;2023-05-16T22:21:52;3.30;;;3.10;;
18653;SDS011;9456;47.824;16.228;2023-05-16T22:24:21;3.30;;;3.10;;
18653;SDS011;9456;47.824;16.228;2023-05-16T22:26:50;3.30;;;3.10;;
18653;SDS011;9456;47.824;16.228;2023-05-16T22:29:19;3.53;;;3.33;;
18653;SDS011;9456;47.824;16.228;2023-05-16T22:31:48;4.00;;;3.70;;
18653;SDS011;9456;47.824;16.228;2023-05-16T22:34:17;3.40;;;3.20;;
18653;SDS011;9456;47.824;16.228;2023-05-16T22:36:46;4.13;;;3.83;;
18653;SDS011;9456;47.824;16.228;2023-05-16T22:39:15;3.70;;;3.40;;
18653;SDS011;9456;47.824;16.228;2023-05-16T22:41:43;4.17;;;3.77;;
18653;SDS011;9456;47.824;16.228;2023-05-16T22:44:12;4.17;;;3.87;;
18653;SDS011;9456;47.824;16.228;2023-05-16T22:46:41;4.50;;;4.10;;
18653;SDS011;9456;47.824;16.228;2023-05-16T22:49:10;4.50;;;4.10;;
18653;SDS011;9456;47.824;16.228;2023-05-16T22:51:39;4.10;;;3.80;;
18653;SDS011;9456;47.824;16.228;2023-05-16T22:54:08;3.93;;;3.63;;
18653;SDS011;9456;47.824;16.228;2023-05-16T22:56:37;4.17;;;3.87;;
18653;SDS011;9456;47.824;16.228;2023-05-16T22:59:06;4.20;;;3.90;;
18653;SDS011;9456;47.824;16.228;2023-05-16T23:01:35;4.17;;;3.87;;
18653;SDS011;9456;47.824;16.228;2023-05-16T23:04:04;3.80;;;3.50;;
18653;SDS011;9456;47.824;16.228;2023-05-16T23:06:33;3.63;;;3.43;;
18653;SDS011;9456;47.824;16.228;2023-05-16T23:09:02;3.83;;;3.50;;
18653;SDS011;9456;47.824;16.228;2023-05-16T23:11:31;3.83;;;3.53;;
18653;SDS011;9456;47.824;16.228;2023-05-16T23:14:00;3.63;;;3.43;;
18653;SDS011;9456;47.824;16.228;2023-05-16T23:16:29;4.77;;;3.07;;
18653;SDS011;9456;47.824;16.228;2023-05-16T23:18:58;3.50;;;3.20;;
18653;SDS011;9456;47.824;16.228;2023-05-16T23:21:26;3.10;;;2.90;;
18653;SDS011;9456;47.824;16.228;2023-05-16T23:23:55;3.10;;;2.90;;
18653;SDS011;9456;47.824;16.228;2023-05-16T23:26:27;2.60;;;2.50;;
18653;SDS011;9456;47.824;16.228;2023-05-16T23:28:56;2.57;;;2.37;;
18653;SDS011;9456;47.824;16.228;2023-05-16T23:31:25;2.43;;;2.23;;
18653;SDS011;9456;47.824;16.228;2023-05-16T23:33:54;2.33;;;2.23;;
18653;SDS011;9456;47.824;16.228;2023-05-16T23:36:23;2.70;;;2.50;;
18653;SDS011;9456;47.824;16.228;2023-05-16T23:38:52;2.20;;;2.00;;
18653;SDS011;9456;47.824;16.228;2023-05-16T23:41:21;2.70;;;2.50;;
18653;SDS011;9456;47.824;16.228;2023-05-16T23:43:50;2.77;;;2.57;;
18653;SDS011;9456;47.824;16.228;2023-05-16T23:46:19;2.60;;;2.40;;
18653;SDS011;9456;47.824;16.228;2023-05-16T23:48:48;2.37;;;2.27;;
18653;SDS011;9456;47.824;16.228;2023-05-16T23:51:16;2.97;;;2.77;;
18653;SDS011;9456;47.824;16.228;2023-05-16T23:53:45;3.40;;;3.00;;
18653;SDS011;9456;47.824;16.228;2023-05-16T23:56:14;3.27;;;3.07;;
18653;SDS011;9456;47.824;16.228;2023-05-16T23:58:43;3.60;;;3.30;;
